Time;durP1;ratioP1;P1;durP2;ratioP2;P2;SDS_P1;SDS_P2;PMS_P1;PMS_P2;Temp;Humidity;BMP_temperature;BMP_pressure;BME280_temperature;BME280_humidity;BME280_pressure;Samples;Min_cycle;Max_cycle;Signal;HPM_P1;HPM_P2
2021/07/31 00:01:57;;;;;;;5.68;2.30;;;;;;;18.55;61.37;100409.88;5092150;28;20533;-59
2021/07/31 00:04:25;;;;;;;7.97;2.60;;;;;;;18.38;61.68;100408.00;5091879;28;20032;-58
2021/07/31 00:06:53;;;;;;;7.30;2.42;;;;;;;18.34;62.31;100401.53;5092172;28;20127;-58
2021/07/31 00:09:20;;;;;;;6.35;2.70;;;;;;;18.29;62.08;100408.03;5078346;28;20402;-59
2021/07/31 00:11:48;;;;;;;8.55;2.67;;;;;;;18.31;62.08;100404.94;5092224;28;20039;-59
2021/07/31 00:14:15;;;;;;;8.23;2.58;;;;;;;18.28;62.29;100400.91;5092088;28;20036;-59
2021/07/31 00:16:43;;;;;;;8.82;2.30;;;;;;;18.37;62.50;100400.03;5095302;28;20101;-58
2021/07/31 00:19:11;;;;;;;11.40;3.47;;;;;;;18.42;62.21;100403.41;5095634;28;20127;-59
2021/07/31 00:21:39;;;;;;;5.25;2.13;;;;;;;18.41;62.59;100398.25;5095956;28;20032;-58
2021/07/31 00:24:06;;;;;;;9.23;2.80;;;;;;;18.39;62.68;100406.03;5096200;28;20040;-59
2021/07/31 00:26:34;;;;;;;8.70;2.72;;;;;;;18.35;62.55;100405.09;5095844;28;20406;-59
2021/07/31 00:29:02;;;;;;;7.53;2.65;;;;;;;18.35;62.80;100405.91;5096056;28;20502;-59
2021/07/31 00:31:29;;;;;;;9.60;2.85;;;;;;;18.37;62.75;100409.13;5095764;28;20032;-59
2021/07/31 00:33:57;;;;;;;8.20;2.78;;;;;;;18.38;62.66;100405.25;5095366;28;20076;-58
2021/07/31 00:36:25;;;;;;;9.10;2.85;;;;;;;18.31;62.83;100403.00;5095707;28;20034;-56
2021/07/31 00:38:52;;;;;;;6.75;1.88;;;;;;;18.44;63.48;100395.63;5095826;28;20032;-55
2021/07/31 00:41:20;;;;;;;5.90;1.92;;;;;;;18.53;62.92;100401.13;5078134;28;20044;-60
2021/07/31 00:43:48;;;;;;;9.85;3.05;;;;;;;18.54;62.38;100391.69;5095857;28;20401;-57
2021/07/31 00:46:16;;;;;;;10.30;3.25;;;;;;;18.38;62.49;100399.72;5095450;28;20585;-59
2021/07/31 00:48:44;;;;;;;8.63;3.10;;;;;;;18.36;62.93;100406.72;5095514;28;20044;-59
2021/07/31 00:51:12;;;;;;;10.40;3.05;;;;;;;18.34;63.03;100396.00;5077611;28;20052;-58
2021/07/31 00:53:40;;;;;;;4.95;2.42;;;;;;;18.23;63.61;100401.09;5077904;28;20055;-60
2021/07/31 00:56:08;;;;;;;8.02;2.50;;;;;;;18.24;63.64;100399.94;5095467;28;20098;-59
2021/07/31 00:58:36;;;;;;;9.52;2.70;;;;;;;18.22;63.95;100402.22;5077498;28;20043;-58
2021/07/31 01:01:06;;;;;;;12.63;3.08;;;;;;;18.25;63.54;100400.75;5077227;28;20046;-57
2021/07/31 01:03:34;;;;;;;9.18;3.40;;;;;;;18.23;63.61;100406.59;5095342;28;20048;-59
2021/07/31 01:06:02;;;;;;;7.97;2.58;;;;;;;18.17;63.82;100405.16;5095734;28;20048;-59
2021/07/31 01:08:29;;;;;;;11.95;3.58;;;;;;;18.22;63.91;100402.22;5093906;28;20074;-58
2021/07/31 01:11:00;;;;;;;9.93;3.22;;;;;;;18.18;63.95;100397.69;5077545;28;20044;-59
2021/07/31 01:13:30;;;;;;;6.75;2.78;;;;;;;18.21;64.11;100399.81;5095271;28;20040;-60
2021/07/31 01:16:05;;;;;;;11.90;3.15;;;;;;;18.17;63.88;100405.16;5069503;28;20398;-59
2021/07/31 01:18:34;;;;;;;;;;;;;;;18.20;64.39;100404.47;5095457;28;20032;-58
2021/07/31 01:21:05;;;;;;;13.32;3.58;;;;;;;18.16;63.92;100403.53;5094886;28;20305;-57
2021/07/31 01:23:33;;;;;;;7.35;2.88;;;;;;;18.17;64.47;100399.63;5095212;28;20048;-58
2021/07/31 01:26:02;;;;;;;12.15;3.42;;;;;;;18.16;64.22;100397.19;5094830;28;20127;-59
2021/07/31 01:28:29;;;;;;;12.00;3.10;;;;;;;18.29;63.76;100394.22;5094029;28;20086;-58
2021/07/31 01:30:57;;;;;;;12.43;3.25;;;;;;;18.26;63.97;100392.16;5094717;28;20452;-58
2021/07/31 01:33:26;;;;;;;7.93;2.97;;;;;;;18.17;63.73;100398.84;5095012;28;20048;-59
2021/07/31 01:35:54;;;;;;;12.20;2.88;;;;;;;18.14;64.25;100386.50;5095124;28;20090;-58
2021/07/31 01:38:40;;;;;;;9.98;2.80;;;;;;;18.27;64.11;100392.94;5077094;28;20040;-59
2021/07/31 01:41:08;;;;;;;7.25;2.92;;;;;;;18.53;62.41;100393.63;5094381;28;20036;-59
2021/07/31 01:43:35;;;;;;;11.82;3.30;;;;;;;18.39;63.29;100395.00;5076714;28;20040;-59
2021/07/31 01:46:03;;;;;;;12.30;3.30;;;;;;;18.37;63.50;100391.78;5076337;28;20127;-59
2021/07/31 01:48:32;;;;;;;11.55;2.85;;;;;;;18.28;63.69;100389.06;5094710;28;20094;-60
2021/07/31 01:51:03;;;;;;;10.38;3.00;;;;;;;18.12;63.89;100402.56;5076552;28;20052;-59
2021/07/31 01:53:31;;;;;;;8.55;3.08;;;;;;;18.20;63.73;100396.22;5094614;28;20043;-59
2021/07/31 01:56:00;;;;;;;9.32;3.33;;;;;;;18.18;64.05;100386.66;5076281;28;20398;-59
2021/07/31 01:58:31;;;;;;;11.23;3.30;;;;;;;18.12;63.94;100391.53;5094292;28;20100;-60
2021/07/31 02:00:59;;;;;;;13.35;3.55;;;;;;;18.12;63.80;100401.78;5076158;28;20040;-59
2021/07/31 02:03:28;;;;;;;9.82;2.90;;;;;;;18.06;63.85;100395.59;5094255;28;20044;-59
2021/07/31 02:06:34;;;;;;;12.48;3.33;;;;;;;18.05;64.27;100394.81;4992617;28;20049;-59
2021/07/31 02:09:02;;;;;;;11.80;3.25;;;;;;;18.17;63.87;100388.59;4992542;28;20078;-59
2021/07/31 02:11:32;;;;;;;8.05;3.08;;;;;;;18.18;63.59;100395.72;4992317;28;20058;-56
2021/07/31 02:14:02;;;;;;;7.15;2.80;;;;;;;18.02;64.23;100391.91;4992081;28;20062;-58
2021/07/31 02:16:36;;;;;;;14.38;3.45;;;;;;;18.03;64.17;100396.28;4991993;28;20157;-57
2021/07/31 02:19:10;;;;;;;10.48;2.72;;;;;;;17.94;64.48;100389.97;4992154;28;20058;-57
2021/07/31 02:21:57;;;;;;;9.70;3.00;;;;;;;17.93;64.79;100383.66;4976299;28;20540;-59
2021/07/31 02:25:00;;;;;;;15.15;3.80;;;;;;;17.94;64.92;100379.75;4972728;28;20434;-59
2021/07/31 02:27:46;;;;;;;12.52;3.67;;;;;;;18.18;64.23;100379.19;4972222;28;20057;-59
2021/07/31 02:30:15;;;;;;;12.02;3.58;;;;;;;18.14;64.64;100383.75;4972620;28;20493;-59
2021/07/31 02:32:42;;;;;;;13.35;3.63;;;;;;;18.14;64.65;100382.97;4972581;28;20605;-59
2021/07/31 02:35:11;;;;;;;10.18;3.30;;;;;;;18.05;64.64;100385.72;4956608;28;20133;-59
2021/07/31 02:38:17;;;;;;;8.23;2.70;;;;;;;18.01;64.75;100382.00;5011354;28;20487;-58
2021/07/31 02:40:48;;;;;;;6.85;2.80;;;;;;;18.18;64.54;100379.19;5014645;28;20661;-58
2021/07/31 02:43:17;;;;;;;10.93;3.20;;;;;;;18.14;64.46;100381.00;5014560;28;20129;-58
2021/07/31 02:45:47;;;;;;;8.52;2.97;;;;;;;18.06;64.63;100381.81;5030899;28;20570;-59
2021/07/31 02:48:14;;;;;;;8.77;3.00;;;;;;;17.98;65.05;100385.44;5014378;28;20080;-59
2021/07/31 02:50:44;;;;;;;4.70;2.05;;;;;;;17.98;65.93;100385.44;5014787;28;20068;-58
2021/07/31 02:53:40;;;;;;;10.52;3.17;;;;;;;17.97;65.55;100381.88;5014453;28;20050;-59
2021/07/31 02:56:08;;;;;;;9.98;3.20;;;;;;;17.87;65.27;100380.28;5030925;28;20133;-59
2021/07/31 02:58:36;;;;;;;9.05;2.90;;;;;;;17.95;65.82;100383.34;5026920;28;20490;-59
2021/07/31 03:01:05;;;;;;;7.88;3.13;;;;;;;17.93;65.42;100380.09;5073128;28;20047;-58
2021/07/31 03:03:36;;;;;;;10.43;3.20;;;;;;;17.91;65.42;100369.38;5071885;28;20479;-57
2021/07/31 03:06:04;;;;;;;10.32;3.42;;;;;;;17.86;65.57;100378.63;5073224;28;20427;-59
2021/07/31 03:08:34;;;;;;;12.88;3.30;;;;;;;17.99;65.39;100373.25;5055126;28;20107;-59
2021/07/31 03:11:05;;;;;;;9.85;3.38;;;;;;;17.95;65.36;100370.34;5072666;28;20406;-59
2021/07/31 03:13:35;;;;;;;12.75;3.47;;;;;;;18.14;64.83;100364.47;5072258;28;20486;-60
2021/07/31 03:16:05;;;;;;;11.88;3.42;;;;;;;17.98;65.09;100364.19;5071403;28;20052;-60
2021/07/31 03:18:32;;;;;;;8.88;3.50;;;;;;;17.91;65.42;100358.34;5072725;28;20041;-60
2021/07/31 03:21:02;;;;;;;6.80;2.60;;;;;;;17.87;65.59;100358.22;5072379;28;20514;-58
2021/07/31 03:23:56;;;;;;;10.55;3.28;;;;;;;17.83;65.52;100365.53;5069170;28;20049;-58
2021/07/31 03:26:23;;;;;;;8.07;3.33;;;;;;;17.95;65.30;100362.09;5054444;28;20083;-58
2021/07/31 03:28:53;;;;;;;11.13;3.20;;;;;;;17.91;65.29;100374.09;5054510;28;20071;-60
2021/07/31 03:31:21;;;;;;;7.10;2.47;;;;;;;17.88;66.25;100365.34;5072338;28;20048;-59
2021/07/31 03:33:52;;;;;;;8.98;3.05;;;;;;;17.99;66.19;100376.00;5054605;28;20059;-58
2021/07/31 03:36:21;;;;;;;14.00;3.40;;;;;;;17.93;66.94;100369.88;5054610;28;20044;-60
2021/07/31 03:39:01;;;;;;;9.43;3.40;;;;;;;17.82;67.10;100374.94;5072426;28;20147;-59
2021/07/31 03:41:33;;;;;;;8.15;2.63;;;;;;;17.71;67.50;100376.38;5071638;28;20036;-59
2021/07/31 03:44:01;;;;;;;10.00;2.95;;;;;;;17.75;67.71;100380.09;5072362;28;20048;-59
2021/07/31 03:46:32;;;;;;;11.95;2.88;;;;;;;17.63;68.23;100385.44;5070787;28;20041;-59
2021/07/31 03:49:01;;;;;;;12.52;3.50;;;;;;;17.73;67.96;100381.56;5072500;28;20048;-58
2021/07/31 03:51:32;;;;;;;9.90;3.08;;;;;;;17.70;68.66;100391.28;5055373;28;20080;-57
2021/07/31 03:54:00;;;;;;;11.00;3.17;;;;;;;17.61;69.36;100409.78;5072138;28;20495;-59
2021/07/31 03:56:28;;;;;;;6.95;2.60;;;;;;;17.50;69.93;100411.25;5053835;28;20055;-58
2021/07/31 03:59:00;;;;;;;9.13;3.20;;;;;;;17.38;71.16;100418.19;5071009;28;20044;-59
2021/07/31 04:01:28;;;;;;;9.55;3.30;;;;;;;17.37;71.13;100418.53;5071733;28;20380;-57
2021/07/31 04:04:02;;;;;;;12.70;3.33;;;;;;;17.36;71.60;100414.16;5054007;28;20059;-57
2021/07/31 04:06:31;;;;;;;8.82;2.95;;;;;;;17.36;71.05;100420.47;5054210;28;20495;-58
2021/07/31 04:09:17;;;;;;;10.23;3.35;;;;;;;17.36;71.22;100417.72;5072148;28;20040;-59
2021/07/31 04:12:03;;;;;;;;;;;;;;;17.33;70.64;100412.84;5072158;28;20032;-57
2021/07/31 04:15:03;;;;;;;11.30;4.05;;;;;;;17.37;71.06;100416.59;5009992;28;19922;-54
2021/07/31 04:17:32;;;;;;;9.50;3.03;;;;;;;17.41;70.48;100417.56;4993639;28;20128;-57
2021/07/31 04:20:00;;;;;;;8.32;3.15;;;;;;;17.32;71.15;100416.75;5010158;28;20088;-57
2021/07/31 04:22:29;;;;;;;10.77;3.28;;;;;;;17.39;70.94;100413.50;4993612;28;20125;-54
2021/07/31 04:24:58;;;;;;;9.82;3.20;;;;;;;17.38;70.73;100418.19;5009279;28;20056;-58
2021/07/31 04:27:25;;;;;;;6.13;2.60;;;;;;;17.41;70.75;100419.50;5009974;28;20056;-56
2021/07/31 04:29:53;;;;;;;10.20;3.53;;;;;;;17.42;70.39;100426.63;5009999;28;20038;-54
2021/07/31 04:32:21;;;;;;;8.30;2.92;;;;;;;17.33;70.73;100428.56;5009929;28;20068;-59
2021/07/31 04:34:48;;;;;;;8.93;3.42;;;;;;;17.26;71.03;100431.81;5009640;28;20041;-58
2021/07/31 04:37:16;;;;;;;10.63;3.08;;;;;;;17.23;71.55;100426.94;5009866;28;20046;-58
2021/07/31 04:39:46;;;;;;;10.75;2.75;;;;;;;17.35;70.75;100418.84;5009337;28;20580;-59
2021/07/31 04:42:14;;;;;;;8.93;3.13;;;;;;;17.54;69.84;100442.53;5009844;28;20544;-58
2021/07/31 04:44:41;;;;;;;7.43;2.75;;;;;;;17.37;70.61;100437.81;4993119;28;20054;-58
2021/07/31 04:47:09;;;;;;;10.25;3.20;;;;;;;17.24;71.25;100439.56;5009635;28;20056;-59
2021/07/31 04:49:37;;;;;;;2.38;1.60;;;;;;;17.48;69.79;100435.53;5012764;28;20500;-58
2021/07/31 04:52:08;;;;;;;4.85;2.00;;;;;;;17.32;70.50;100436.03;5060833;28;20047;-57
2021/07/31 04:54:40;;;;;;;12.15;3.85;;;;;;;17.30;70.63;100443.81;5091596;28;20142;-54
2021/07/31 04:57:09;;;;;;;10.27;3.22;;;;;;;17.29;70.85;100452.38;5091561;28;20397;-58
2021/07/31 04:59:37;;;;;;;7.20;3.03;;;;;;;17.30;71.14;100457.56;5091964;28;20517;-57
2021/07/31 05:02:04;;;;;;;8.77;3.58;;;;;;;17.38;70.33;100466.97;5093673;28;20046;-55
2021/07/31 05:04:32;;;;;;;4.50;2.08;;;;;;;17.46;69.93;100463.41;5095615;28;20429;-56
2021/07/31 05:07:00;;;;;;;9.40;2.58;;;;;;;17.36;70.50;100469.22;5095502;28;20063;-58
2021/07/31 05:09:27;;;;;;;10.10;3.33;;;;;;;17.24;71.20;100467.09;5095099;28;20490;-55
2021/07/31 05:11:55;;;;;;;7.47;3.60;;;;;;;17.23;71.11;100471.81;5095118;28;20052;-56
2021/07/31 05:14:23;;;;;;;7.05;2.55;;;;;;;17.22;71.27;100477.63;5095313;28;20048;-56
2021/07/31 05:16:50;;;;;;;7.47;2.65;;;;;;;17.30;70.75;100471.34;5094689;28;20032;-55
2021/07/31 05:19:18;;;;;;;9.20;3.38;;;;;;;17.39;70.86;100469.41;5086796;28;20043;-56
2021/07/31 05:21:45;;;;;;;9.50;3.28;;;;;;;17.40;70.65;100473.78;5092101;28;20058;-55
2021/07/31 05:24:13;;;;;;;6.72;2.40;;;;;;;17.34;71.16;100475.09;5088005;28;20581;-54
2021/07/31 05:26:41;;;;;;;7.82;3.22;;;;;;;17.42;70.98;100474.25;5094246;28;20119;-57
2021/07/31 05:29:09;;;;;;;8.13;3.30;;;;;;;17.43;70.87;100480.56;5094550;28;20445;-56
2021/07/31 05:31:36;;;;;;;8.77;3.03;;;;;;;17.51;70.83;100489.97;5081009;28;20032;-52
2021/07/31 05:34:04;;;;;;;5.93;3.05;;;;;;;17.40;71.42;100479.28;5094463;28;20047;-59
2021/07/31 05:36:35;;;;;;;6.90;3.45;;;;;;;17.39;71.11;100490.59;5093016;28;20040;-59
2021/07/31 05:39:03;;;;;;;6.20;3.03;;;;;;;17.39;71.15;100485.94;5094410;28;20380;-58
2021/07/31 05:41:31;;;;;;;8.25;3.38;;;;;;;17.34;71.15;100483.34;5094193;28;20111;-55
2021/07/31 05:43:58;;;;;;;9.73;3.08;;;;;;;17.32;71.33;100482.00;5094644;28;20044;-58
2021/07/31 05:46:26;;;;;;;5.82;2.03;;;;;;;17.39;70.64;100477.69;5093948;28;20067;-57
2021/07/31 05:48:54;;;;;;;5.88;3.08;;;;;;;17.39;70.89;100491.44;5088478;28;20049;-59
2021/07/31 05:51:22;;;;;;;9.32;2.95;;;;;;;17.38;71.18;100489.81;5088694;28;20418;-57
2021/07/31 05:53:50;;;;;;;7.85;2.70;;;;;;;17.34;71.47;100493.53;5093980;28;20032;-59
2021/07/31 05:56:17;;;;;;;6.57;2.45;;;;;;;17.38;70.86;100500.81;5093948;28;20036;-57
2021/07/31 05:58:45;;;;;;;5.47;2.20;;;;;;;17.45;70.44;100498.41;5094362;28;20037;-57
2021/07/31 06:01:15;;;;;;;7.25;2.88;;;;;;;17.53;70.19;100499.53;5094252;28;20131;-56
2021/07/31 06:03:43;;;;;;;10.43;3.42;;;;;;;17.57;69.91;100503.28;5093816;28;20044;-54
2021/07/31 06:06:11;;;;;;;7.80;3.53;;;;;;;17.51;70.37;100507.34;5093639;28;20127;-56
2021/07/31 06:08:39;;;;;;;6.65;2.40;;;;;;;17.49;70.27;100511.56;5093827;28;20123;-56
2021/07/31 06:11:07;;;;;;;9.13;3.92;;;;;;;17.47;70.42;100514.63;5094105;28;20036;-55
2021/07/31 06:13:34;;;;;;;9.93;3.38;;;;;;;17.45;70.41;100512.19;5092497;28;20047;-54
2021/07/31 06:16:08;;;;;;;7.93;3.50;;;;;;;17.50;70.67;100518.66;5093843;28;20063;-58
2021/07/31 06:18:37;;;;;;;9.68;3.35;;;;;;;17.52;70.68;100508.94;5094130;28;20118;-54
2021/07/31 06:21:05;;;;;;;10.77;3.60;;;;;;;17.36;71.63;100519.59;5075423;28;20478;-58
2021/07/31 06:23:33;;;;;;;5.70;2.30;;;;;;;17.35;71.58;100512.50;5093957;28;20422;-57
2021/07/31 06:26:02;;;;;;;6.75;2.58;;;;;;;17.64;70.07;100514.63;5093475;28;20062;-58
2021/07/31 06:28:29;;;;;;;9.63;3.80;;;;;;;17.57;71.65;100516.25;5093602;28;20040;-51
2021/07/31 06:30:57;;;;;;;8.60;3.50;;;;;;;17.40;72.42;100519.78;5093694;28;20052;-55
2021/07/31 06:33:24;;;;;;;7.55;2.80;;;;;;;17.36;71.79;100519.59;5093867;28;20037;-57
2021/07/31 06:35:52;;;;;;;9.07;3.22;;;;;;;17.37;73.01;100524.00;5093295;28;20047;-58
2021/07/31 06:38:20;;;;;;;9.13;3.83;;;;;;;17.43;72.86;100524.66;5093124;28;20058;-59
2021/07/31 06:40:47;;;;;;;7.93;3.70;;;;;;;17.34;73.37;100532.91;5092530;28;20036;-58
2021/07/31 06:43:15;;;;;;;9.13;3.55;;;;;;;17.30;73.42;100531.13;5093109;28;20036;-57
2021/07/31 06:45:43;;;;;;;7.97;3.03;;;;;;;17.21;73.72;100536.59;5093202;28;20512;-58
2021/07/31 06:48:10;;;;;;;7.90;3.10;;;;;;;17.19;73.74;100541.59;5093707;28;20083;-62
2021/07/31 06:50:38;;;;;;;11.90;4.60;;;;;;;17.12;75.09;100541.25;5093683;28;20036;-61
2021/07/31 06:53:05;;;;;;;11.70;4.45;;;;;;;17.06;75.79;100542.53;5093575;28;20071;-63
2021/07/31 06:55:33;;;;;;;9.23;4.50;;;;;;;16.97;76.83;100551.56;5076640;28;20071;-63
2021/07/31 06:58:01;;;;;;;11.38;4.47;;;;;;;16.91;77.26;100552.84;5094540;28;20040;-63
2021/07/31 07:00:28;;;;;;;12.02;4.68;;;;;;;16.90;77.10;100542.97;5081125;28;20540;-61
2021/07/31 07:02:56;;;;;;;9.95;4.72;;;;;;;16.83;77.36;100546.16;5093039;28;20437;-63
2021/07/31 07:05:24;;;;;;;8.40;4.25;;;;;;;16.78;78.11;100545.47;5092597;28;20063;-64
2021/07/31 07:07:53;;;;;;;13.25;4.93;;;;;;;16.77;77.89;100543.84;5093069;28;20044;-63
2021/07/31 07:10:20;;;;;;;9.98;4.47;;;;;;;16.76;78.02;100545.78;5092799;28;20043;-63
2021/07/31 07:12:48;;;;;;;10.80;4.70;;;;;;;16.76;77.91;100554.06;5092751;28;20134;-61
2021/07/31 07:15:16;;;;;;;8.88;5.15;;;;;;;16.71;77.99;100564.38;5092605;28;20078;-61
2021/07/31 07:17:43;;;;;;;8.73;4.07;;;;;;;16.73;77.84;100556.59;5092785;28;20062;-61
2021/07/31 07:20:11;;;;;;;10.05;4.70;;;;;;;16.71;78.24;100551.41;5092563;28;20040;-61
2021/07/31 07:22:38;;;;;;;11.18;4.63;;;;;;;16.68;78.06;100567.75;5092567;28;20103;-60
2021/07/31 07:25:06;;;;;;;13.52;4.93;;;;;;;16.67;78.27;100568.88;5092032;28;20081;-62
2021/07/31 07:27:34;;;;;;;11.38;4.47;;;;;;;16.68;78.15;100576.00;5092066;28;20517;-59
2021/07/31 07:30:03;;;;;;;8.65;4.53;;;;;;;16.69;78.46;100577.63;5092675;28;20440;-63
2021/07/31 07:32:31;;;;;;;11.57;4.93;;;;;;;16.72;77.89;100574.25;5073705;28;20075;-60
2021/07/31 07:34:59;;;;;;;10.73;4.50;;;;;;;16.69;77.92;100583.97;5078516;28;20051;-62
2021/07/31 07:37:27;;;;;;;9.15;4.50;;;;;;;16.72;77.72;100571.50;5062114;28;20127;-61
2021/07/31 07:39:54;;;;;;;10.00;4.40;;;;;;;16.73;78.22;100584.13;5090975;28;20047;-60
2021/07/31 07:42:22;;;;;;;12.30;4.32;;;;;;;16.75;78.03;100585.44;5092420;28;20048;-62
2021/07/31 07:44:49;;;;;;;11.07;4.60;;;;;;;16.76;77.21;100581.56;5092017;28;20058;-62
2021/07/31 07:47:17;;;;;;;10.02;4.57;;;;;;;16.76;77.29;100584.31;5092553;28;20059;-62
2021/07/31 07:49:45;;;;;;;10.25;4.97;;;;;;;16.77;77.89;100590.63;5074005;28;20051;-60
2021/07/31 07:52:12;;;;;;;9.25;4.40;;;;;;;16.76;78.09;100588.97;5092005;28;20075;-59
2021/07/31 07:54:40;;;;;;;11.82;4.50;;;;;;;16.77;77.92;100587.88;5092207;28;20042;-61
2021/07/31 07:57:07;;;;;;;11.00;4.57;;;;;;;16.77;78.16;100591.44;5092232;28;20105;-62
2021/07/31 07:59:35;;;;;;;9.98;4.10;;;;;;;16.82;78.05;100594.06;5092577;28;20118;-60
2021/07/31 08:02:03;;;;;;;10.63;4.88;;;;;;;16.95;77.61;100592.34;5091832;28;20118;-62
2021/07/31 08:04:34;;;;;;;9.45;4.32;;;;;;;17.00;77.47;100588.66;5092102;28;20052;-61
2021/07/31 08:07:02;;;;;;;12.57;4.70;;;;;;;17.02;77.24;100589.16;5091903;28;20040;-62
2021/07/31 08:09:30;;;;;;;14.73;4.53;;;;;;;17.09;76.33;100586.75;5092099;28;20058;-62
2021/07/31 08:11:58;;;;;;;11.30;4.80;;;;;;;17.25;76.57;100584.41;5092194;28;20383;-61
2021/07/31 08:14:25;;;;;;;10.13;5.05;;;;;;;17.29;76.37;100596.38;5092418;28;20101;-59
2021/07/31 08:16:53;;;;;;;11.77;4.85;;;;;;;17.32;76.17;100584.75;5091437;28;20079;-62
2021/07/31 08:19:21;;;;;;;7.78;4.30;;;;;;;17.32;75.63;100590.25;5092664;28;20111;-60
2021/07/31 08:21:48;;;;;;;10.38;4.15;;;;;;;17.31;76.53;100591.38;5092101;28;20044;-58
2021/07/31 08:24:16;;;;;;;10.35;4.18;;;;;;;17.41;75.98;100591.09;5092014;28;20039;-56
2021/07/31 08:26:45;;;;;;;14.98;4.82;;;;;;;17.59;75.53;100591.13;5092055;28;20056;-59
2021/07/31 08:29:13;;;;;;;9.18;4.53;;;;;;;17.67;74.19;100601.34;5091929;28;20105;-62
2021/07/31 08:31:41;;;;;;;9.20;4.20;;;;;;;17.66;74.39;100589.50;5091395;28;20066;-62
2021/07/31 08:34:13;;;;;;;10.68;4.40;;;;;;;17.62;74.66;100590.47;5092104;28;20123;-60
2021/07/31 08:36:40;;;;;;;8.15;4.00;;;;;;;17.57;74.37;100587.88;5075220;28;20089;-62
2021/07/31 08:39:08;;;;;;;9.75;4.57;;;;;;;17.48;73.01;100592.56;5096161;28;20046;-60
2021/07/31 08:41:36;;;;;;;8.88;4.10;;;;;;;17.41;73.33;100598.53;5095540;28;20401;-61
2021/07/31 08:44:03;;;;;;;11.85;5.18;;;;;;;17.43;73.57;100602.56;5095937;28;20048;-61
2021/07/31 08:46:35;;;;;;;12.20;5.63;;;;;;;17.58;72.71;100592.25;5095108;28;20064;-61
2021/07/31 08:49:03;;;;;;;9.98;4.65;;;;;;;17.52;72.08;100604.56;5095846;28;20071;-61
2021/07/31 08:51:31;;;;;;;14.00;4.80;;;;;;;17.54;72.19;100596.78;5094971;28;20098;-61
2021/07/31 08:54:02;;;;;;;15.95;5.60;;;;;;;17.53;71.91;100606.16;5077776;28;20044;-61
2021/07/31 08:56:30;;;;;;;12.43;4.78;;;;;;;17.56;72.34;100613.81;5095342;28;20048;-61
2021/07/31 08:59:01;;;;;;;9.85;3.90;;;;;;;17.52;71.65;100619.13;5077608;28;20391;-61
2021/07/31 09:01:28;;;;;;;7.85;3.80;;;;;;;17.46;71.52;100612.97;5094815;28;20043;-60
2021/07/31 09:03:58;;;;;;;11.90;4.15;;;;;;;17.47;71.83;100619.28;5095543;28;20036;-61
2021/07/31 09:06:30;;;;;;;11.83;4.20;;;;;;;17.41;72.58;100624.16;4374565;28;9999990;-59
2021/07/31 09:08:59;;;;;;;8.38;3.90;;;;;;;17.37;72.38;100625.91;5093411;28;21054;-60
2021/07/31 09:11:28;;;;;;;9.20;4.18;;;;;;;17.36;72.60;100621.50;5093288;28;20402;-61
2021/07/31 09:14:10;;;;;;;10.68;4.18;;;;;;;17.39;72.72;100629.16;5074876;28;20500;-61
2021/07/31 09:16:38;;;;;;;8.88;3.90;;;;;;;17.40;72.75;100636.28;5092112;28;20048;-61
2021/07/31 09:19:07;;;;;;;9.95;4.47;;;;;;;17.52;72.38;100634.88;5092960;28;20050;-61
2021/07/31 09:21:35;;;;;;;11.10;4.05;;;;;;;17.55;72.35;100634.22;5093093;28;20040;-61
2021/07/31 09:24:12;;;;;;;9.95;4.13;;;;;;;17.58;71.77;100630.81;5093230;28;20052;-59
2021/07/31 09:26:46;;;;;;;10.95;4.30;;;;;;;17.72;71.87;100631.50;5074861;28;20505;-59
2021/07/31 09:29:35;;;;;;;16.85;5.70;;;;;;;17.87;71.12;100633.84;5092228;28;20123;-60
2021/07/31 09:32:05;;;;;;;8.30;3.90;;;;;;;17.80;70.61;100638.19;5092876;28;20048;-59
2021/07/31 09:34:45;;;;;;;6.47;3.50;;;;;;;17.77;71.31;100645.13;5084858;28;20491;-61
2021/07/31 09:37:17;;;;;;;11.77;3.97;;;;;;;17.76;71.71;100634.44;5091830;28;20126;-59
2021/07/31 09:39:52;;;;;;;7.53;3.92;;;;;;;17.73;71.18;100624.88;5091659;28;20071;-60
2021/07/31 09:42:31;;;;;;;9.50;4.03;;;;;;;17.72;70.38;100639.75;5091608;28;20528;-60
2021/07/31 09:45:01;;;;;;;10.73;4.60;;;;;;;17.85;70.27;100636.09;5091241;28;20445;-61
2021/07/31 09:47:29;;;;;;;8.60;4.05;;;;;;;17.78;69.49;100641.25;5091830;28;20565;-60
2021/07/31 09:49:58;;;;;;;7.90;3.45;;;;;;;17.78;69.74;100641.25;5091395;28;20044;-60
2021/07/31 09:52:27;;;;;;;9.38;3.70;;;;;;;17.72;69.32;100652.75;5091414;28;20052;-61
2021/07/31 09:54:57;;;;;;;9.40;3.25;;;;;;;17.63;70.16;100655.47;5091582;28;20032;-60
2021/07/31 09:57:26;;;;;;;7.45;3.58;;;;;;;17.59;70.51;100654.50;5091308;28;20051;-60
2021/07/31 09:59:58;;;;;;;7.35;3.10;;;;;;;17.58;70.18;100653.69;5073057;28;20056;-62
2021/07/31 10:02:27;;;;;;;6.63;3.70;;;;;;;17.59;70.98;100668.28;5088401;28;20044;-62
2021/07/31 10:04:56;;;;;;;7.43;3.40;;;;;;;17.57;72.84;100673.28;5085624;28;20425;-59
2021/07/31 10:07:26;;;;;;;7.68;2.88;;;;;;;17.56;73.29;100671.66;5090264;28;20059;-61
2021/07/31 10:09:55;;;;;;;7.20;3.50;;;;;;;17.57;73.09;100668.56;5073828;28;20123;-59
2021/07/31 10:12:26;;;;;;;8.30;3.35;;;;;;;17.71;72.72;100676.72;5091574;28;20067;-61
2021/07/31 10:14:55;;;;;;;11.00;3.08;;;;;;;17.79;71.88;100670.41;5091411;28;20051;-59
2021/07/31 10:17:30;;;;;;;10.23;3.53;;;;;;;17.88;71.62;100674.03;5090696;28;20410;-60
2021/07/31 10:19:58;;;;;;;7.93;3.53;;;;;;;18.00;70.71;100667.09;5091365;28;20040;-58
2021/07/31 10:22:43;;;;;;;6.07;3.05;;;;;;;18.14;70.60;100678.81;5073616;28;20305;-59
2021/07/31 10:25:18;;;;;;;8.13;3.67;;;;;;;18.28;69.74;100684.19;5091386;28;20063;-60
2021/07/31 10:27:46;;;;;;;5.00;2.90;;;;;;;18.29;69.81;100672.81;5072566;28;20044;-59
2021/07/31 10:30:34;;;;;;;5.82;3.20;;;;;;;18.24;69.49;100686.75;5090851;28;20055;-59
2021/07/31 10:33:02;;;;;;;9.43;3.65;;;;;;;18.21;69.50;100687.41;5090202;28;20052;-59
2021/07/31 10:35:33;;;;;;;8.57;3.70;;;;;;;18.26;69.47;100678.97;5091044;28;20047;-59
2021/07/31 10:38:03;;;;;;;8.10;3.78;;;;;;;18.22;69.82;100683.50;5091131;28;20478;-62
2021/07/31 10:40:32;;;;;;;8.38;3.30;;;;;;;18.23;69.23;100690.66;5090984;28;20044;-58
2021/07/31 10:43:00;;;;;;;6.32;3.33;;;;;;;18.17;69.26;100697.44;5089767;28;20131;-60
2021/07/31 10:45:31;;;;;;;7.65;3.30;;;;;;;18.23;69.62;100698.94;5090918;28;20122;-55
2021/07/31 10:48:20;;;;;;;9.80;3.35;;;;;;;18.15;70.68;100702.47;5073160;28;20441;-58
2021/07/31 10:50:47;;;;;;;8.00;3.00;;;;;;;17.93;70.31;100713.63;5090641;28;20046;-58
2021/07/31 10:53:16;;;;;;;6.00;2.80;;;;;;;17.90;70.12;100717.03;5090289;28;20052;-56
2021/07/31 10:55:44;;;;;;;4.65;2.80;;;;;;;17.87;70.85;100702.75;5090303;28;20044;-57
2021/07/31 10:58:12;;;;;;;7.03;2.90;;;;;;;17.98;70.29;100713.47;5090596;28;20044;-58
2021/07/31 11:00:42;;;;;;;4.57;2.72;;;;;;;18.07;70.25;100714.31;5090496;28;20047;-59
2021/07/31 11:03:18;;;;;;;6.40;3.17;;;;;;;18.22;70.08;100721.31;5081363;28;20044;-57
2021/07/31 11:05:51;;;;;;;4.82;2.72;;;;;;;18.36;69.82;100721.16;5071961;28;20128;-54
2021/07/31 11:08:20;;;;;;;6.13;3.13;;;;;;;18.45;69.95;100713.72;5090661;28;20040;-59
2021/07/31 11:10:48;;;;;;;16.55;3.20;;;;;;;18.57;69.28;100710.28;5072237;28;20036;-58
2021/07/31 11:13:19;;;;;;;7.70;3.30;;;;;;;18.73;68.77;100716.94;5090255;28;20059;-58
2021/07/31 11:16:07;;;;;;;8.40;4.05;;;;;;;18.49;69.06;100726.50;5091854;28;20040;-56
2021/07/31 11:18:34;;;;;;;4.28;2.53;;;;;;;18.50;69.06;100728.16;5092459;28;20044;-58
2021/07/31 11:21:12;;;;;;;6.60;2.63;;;;;;;18.59;69.02;100730.09;5092408;28;20123;-59
2021/07/31 11:24:03;;;;;;;6.47;3.35;;;;;;;18.84;68.83;100734.84;5092868;28;20086;-59
2021/07/31 11:26:52;;;;;;;6.20;3.40;;;;;;;18.67;69.84;100738.38;5078062;28;20371;-57
2021/07/31 11:29:22;;;;;;;4.18;2.70;;;;;;;18.68;69.94;100733.66;5092527;28;20040;-57
2021/07/31 11:32:21;;;;;;;5.88;3.50;;;;;;;18.67;70.46;100746.66;5092777;28;20044;-58
2021/07/31 11:34:49;;;;;;;6.97;3.72;;;;;;;18.56;71.08;100737.06;5092380;28;20545;-57
2021/07/31 11:37:17;;;;;;;6.97;4.10;;;;;;;18.46;71.71;100742.91;5092123;28;20044;-53